<gpx creator="Cyclotour.ca" version="1.1" xmlns:gpsies="http://www.gpsies.com/GPX/1/0" xmlns:xsi="http://www.w3.org/2001/XMLSchema-instance" xmlns="http://www.topografix.com/GPX/1/1" xsi:schemaLocation="http://www.topografix.com/GPX/1/1 http://www.topografix.com/GPX/1/1/gpx.xsd http://www.gpsies.com/GPX/1/0 http://www.gpsies.com/gpsies.xsd">
<trk>
<name>MCC - Saint-Élie-de-Caxton et les environs 2016</name>
<trkseg>
<trkpt lat="46.490250000" lon="-72.959040000">
<ele>0</ele>
<time>2026-09-04T06:27:56Z</time>
</trkpt>
<trkpt lat="46.489940000" lon="-72.958600000">
<ele>0</ele>
<time>2026-09-04T06:27:57Z</time>
</trkpt>
<trkpt lat="46.489410000" lon="-72.957900000">
<ele>0</ele>
<time>2026-09-04T06:27:58Z</time>
</trkpt>
<trkpt lat="46.488510000" lon="-72.956700000">
<ele>0</ele>
<time>2026-09-04T06:27:59Z</time>
</trkpt>
<trkpt lat="46.487760000" lon="-72.955630000">
<ele>0</ele>
<time>2026-09-04T06:28:00Z</time>
</trkpt>
<trkpt lat="46.486970000" lon="-72.954420000">
<ele>0</ele>
<time>2026-09-04T06:28:01Z</time>
</trkpt>
<trkpt lat="46.486650000" lon="-72.953960000">
<ele>0</ele>
<time>2026-09-04T06:28:02Z</time>
</trkpt>
<trkpt lat="46.485910000" lon="-72.953060000">
<ele>0</ele>
<time>2026-09-04T06:28:03Z</time>
</trkpt>
<trkpt lat="46.485460000" lon="-72.952530000">
<ele>0</ele>
<time>2026-09-04T06:28:04Z</time>
</trkpt>
<trkpt lat="46.485020000" lon="-72.951960000">
<ele>0</ele>
<time>2026-09-04T06:28:05Z</time>
</trkpt>
<trkpt lat="46.484610000" lon="-72.951320000">
<ele>0</ele>
<time>2026-09-04T06:28:06Z</time>
</trkpt>
<trkpt lat="46.483010000" lon="-72.948450000">
<ele>0</ele>
<time>2026-09-04T06:28:07Z</time>
</trkpt>
<trkpt lat="46.482420000" lon="-72.947370000">
<ele>0</ele>
<time>2026-09-04T06:28:08Z</time>
</trkpt>
<trkpt lat="46.482190000" lon="-72.946860000">
<ele>0</ele>
<time>2026-09-04T06:28:09Z</time>
</trkpt>
<trkpt lat="46.481970000" lon="-72.946350000">
<ele>0</ele>
<time>2026-09-04T06:28:10Z</time>
</trkpt>
<trkpt lat="46.481720000" lon="-72.945640000">
<ele>0</ele>
<time>2026-09-04T06:28:11Z</time>
</trkpt>
<trkpt lat="46.478640000" lon="-72.936420000">
<ele>0</ele>
<time>2026-09-04T06:28:12Z</time>
</trkpt>
<trkpt lat="46.478330000" lon="-72.935600000">
<ele>0</ele>
<time>2026-09-04T06:28:13Z</time>
</trkpt>
<trkpt lat="46.477940000" lon="-72.934900000">
<ele>0</ele>
<time>2026-09-04T06:28:14Z</time>
</trkpt>
<trkpt lat="46.477530000" lon="-72.934310000">
<ele>0</ele>
<time>2026-09-04T06:28:15Z</time>
</trkpt>
<trkpt lat="46.477280000" lon="-72.933990000">
<ele>0</ele>
<time>2026-09-04T06:28:16Z</time>
</trkpt>
<trkpt lat="46.472690000" lon="-72.927660000">
<ele>0</ele>
<time>2026-09-04T06:28:17Z</time>
</trkpt>
<trkpt lat="46.472690000" lon="-72.927660000">
<ele>0</ele>
<time>2026-09-04T06:28:18Z</time>
</trkpt>
<trkpt lat="46.466860000" lon="-72.919760000">
<ele>0</ele>
<time>2026-09-04T06:28:19Z</time>
</trkpt>
<trkpt lat="46.465650000" lon="-72.918110000">
<ele>0</ele>
<time>2026-09-04T06:28:20Z</time>
</trkpt>
<trkpt lat="46.465140000" lon="-72.917370000">
<ele>0</ele>
<time>2026-09-04T06:28:21Z</time>
</trkpt>
<trkpt lat="46.464440000" lon="-72.916350000">
<ele>0</ele>
<time>2026-09-04T06:28:22Z</time>
</trkpt>
<trkpt lat="46.463850000" lon="-72.915520000">
<ele>0</ele>
<time>2026-09-04T06:28:23Z</time>
</trkpt>
<trkpt lat="46.463660000" lon="-72.915290000">
<ele>0</ele>
<time>2026-09-04T06:28:24Z</time>
</trkpt>
<trkpt lat="46.463310000" lon="-72.915010000">
<ele>0</ele>
<time>2026-09-04T06:28:25Z</time>
</trkpt>
<trkpt lat="46.462850000" lon="-72.914720000">
<ele>0</ele>
<time>2026-09-04T06:28:26Z</time>
</trkpt>
<trkpt lat="46.462490000" lon="-72.914490000">
<ele>0</ele>
<time>2026-09-04T06:28:27Z</time>
</trkpt>
<trkpt lat="46.462490000" lon="-72.914490000">
<ele>0</ele>
<time>2026-09-04T06:28:28Z</time>
</trkpt>
<trkpt lat="46.460570000" lon="-72.913320000">
<ele>0</ele>
<time>2026-09-04T06:28:29Z</time>
</trkpt>
<trkpt lat="46.459060000" lon="-72.912420000">
<ele>0</ele>
<time>2026-09-04T06:28:30Z</time>
</trkpt>
<trkpt lat="46.458190000" lon="-72.911990000">
<ele>0</ele>
<time>2026-09-04T06:28:31Z</time>
</trkpt>
<trkpt lat="46.457340000" lon="-72.911610000">
<ele>0</ele>
<time>2026-09-04T06:28:32Z</time>
</trkpt>
<trkpt lat="46.455840000" lon="-72.910960000">
<ele>0</ele>
<time>2026-09-04T06:28:33Z</time>
</trkpt>
<trkpt lat="46.455340000" lon="-72.910770000">
<ele>0</ele>
<time>2026-09-04T06:28:34Z</time>
</trkpt>
<trkpt lat="46.454840000" lon="-72.910630000">
<ele>0</ele>
<time>2026-09-04T06:28:35Z</time>
</trkpt>
<trkpt lat="46.454280000" lon="-72.910550000">
<ele>0</ele>
<time>2026-09-04T06:28:36Z</time>
</trkpt>
<trkpt lat="46.453340000" lon="-72.910520000">
<ele>0</ele>
<time>2026-09-04T06:28:37Z</time>
</trkpt>
<trkpt lat="46.452810000" lon="-72.910490000">
<ele>0</ele>
<time>2026-09-04T06:28:38Z</time>
</trkpt>
<trkpt lat="46.452520000" lon="-72.910410000">
<ele>0</ele>
<time>2026-09-04T06:28:39Z</time>
</trkpt>
<trkpt lat="46.452320000" lon="-72.910330000">
<ele>0</ele>
<time>2026-09-04T06:28:40Z</time>
</trkpt>
<trkpt lat="46.452010000" lon="-72.910140000">
<ele>0</ele>
<time>2026-09-04T06:28:41Z</time>
</trkpt>
<trkpt lat="46.451790000" lon="-72.909960000">
<ele>0</ele>
<time>2026-09-04T06:28:42Z</time>
</trkpt>
<trkpt lat="46.451380000" lon="-72.909520000">
<ele>0</ele>
<time>2026-09-04T06:28:43Z</time>
</trkpt>
<trkpt lat="46.449880000" lon="-72.907400000">
<ele>0</ele>
<time>2026-09-04T06:28:44Z</time>
</trkpt>
<trkpt lat="46.449880000" lon="-72.907400000">
<ele>0</ele>
<time>2026-09-04T06:28:45Z</time>
</trkpt>
<trkpt lat="46.447070000" lon="-72.903520000">
<ele>0</ele>
<time>2026-09-04T06:28:46Z</time>
</trkpt>
<trkpt lat="46.446650000" lon="-72.902960000">
<ele>0</ele>
<time>2026-09-04T06:28:47Z</time>
</trkpt>
<trkpt lat="46.445650000" lon="-72.901580000">
<ele>0</ele>
<time>2026-09-04T06:28:48Z</time>
</trkpt>
<trkpt lat="46.445650000" lon="-72.901580000">
<ele>0</ele>
<time>2026-09-04T06:28:49Z</time>
</trkpt>
<trkpt lat="46.444260000" lon="-72.899700000">
<ele>0</ele>
<time>2026-09-04T06:28:50Z</time>
</trkpt>
<trkpt lat="46.439920000" lon="-72.892930000">
<ele>0</ele>
<time>2026-09-04T06:28:51Z</time>
</trkpt>
<trkpt lat="46.428730000" lon="-72.876580000">
<ele>0</ele>
<time>2026-09-04T06:28:52Z</time>
</trkpt>
<trkpt lat="46.426760000" lon="-72.873650000">
<ele>0</ele>
<time>2026-09-04T06:28:53Z</time>
</trkpt>
<trkpt lat="46.426760000" lon="-72.873650000">
<ele>0</ele>
<time>2026-09-04T06:28:54Z</time>
</trkpt>
<trkpt lat="46.422270000" lon="-72.866680000">
<ele>0</ele>
<time>2026-09-04T06:28:55Z</time>
</trkpt>
<trkpt lat="46.421230000" lon="-72.865480000">
<ele>0</ele>
<time>2026-09-04T06:28:56Z</time>
</trkpt>
<trkpt lat="46.421230000" lon="-72.865480000">
<ele>0</ele>
<time>2026-09-04T06:28:57Z</time>
</trkpt>
<trkpt lat="46.420700000" lon="-72.864870000">
<ele>0</ele>
<time>2026-09-04T06:28:58Z</time>
</trkpt>
<trkpt lat="46.419810000" lon="-72.863630000">
<ele>0</ele>
<time>2026-09-04T06:28:59Z</time>
</trkpt>
<trkpt lat="46.419810000" lon="-72.863630000">
<ele>0</ele>
<time>2026-09-04T06:29:00Z</time>
</trkpt>
<trkpt lat="46.419180000" lon="-72.862740000">
<ele>0</ele>
<time>2026-09-04T06:29:01Z</time>
</trkpt>
<trkpt lat="46.416120000" lon="-72.858240000">
<ele>0</ele>
<time>2026-09-04T06:29:02Z</time>
</trkpt>
<trkpt lat="46.415690000" lon="-72.857560000">
<ele>0</ele>
<time>2026-09-04T06:29:03Z</time>
</trkpt>
<trkpt lat="46.415070000" lon="-72.856680000">
<ele>0</ele>
<time>2026-09-04T06:29:04Z</time>
</trkpt>
<trkpt lat="46.414290000" lon="-72.855600000">
<ele>0</ele>
<time>2026-09-04T06:29:05Z</time>
</trkpt>
<trkpt lat="46.413930000" lon="-72.854990000">
<ele>0</ele>
<time>2026-09-04T06:29:06Z</time>
</trkpt>
<trkpt lat="46.413780000" lon="-72.854610000">
<ele>0</ele>
<time>2026-09-04T06:29:07Z</time>
</trkpt>
<trkpt lat="46.413600000" lon="-72.853730000">
<ele>0</ele>
<time>2026-09-04T06:29:08Z</time>
</trkpt>
<trkpt lat="46.413180000" lon="-72.852390000">
<ele>0</ele>
<time>2026-09-04T06:29:09Z</time>
</trkpt>
<trkpt lat="46.413000000" lon="-72.851970000">
<ele>0</ele>
<time>2026-09-04T06:29:10Z</time>
</trkpt>
<trkpt lat="46.412820000" lon="-72.851700000">
<ele>0</ele>
<time>2026-09-04T06:29:11Z</time>
</trkpt>
<trkpt lat="46.412630000" lon="-72.851470000">
<ele>0</ele>
<time>2026-09-04T06:29:12Z</time>
</trkpt>
<trkpt lat="46.412350000" lon="-72.851230000">
<ele>0</ele>
<time>2026-09-04T06:29:13Z</time>
</trkpt>
<trkpt lat="46.412220000" lon="-72.851130000">
<ele>0</ele>
<time>2026-09-04T06:29:14Z</time>
</trkpt>
<trkpt lat="46.412220000" lon="-72.851130000">
<ele>0</ele>
<time>2026-09-04T06:29:15Z</time>
</trkpt>
<trkpt lat="46.411520000" lon="-72.850560000">
<ele>0</ele>
<time>2026-09-04T06:29:16Z</time>
</trkpt>
<trkpt lat="46.412150000" lon="-72.848930000">
<ele>0</ele>
<time>2026-09-04T06:29:17Z</time>
</trkpt>
<trkpt lat="46.412150000" lon="-72.848930000">
<ele>0</ele>
<time>2026-09-04T06:29:18Z</time>
</trkpt>
<trkpt lat="46.413320000" lon="-72.845960000">
<ele>0</ele>
<time>2026-09-04T06:29:19Z</time>
</trkpt>
<trkpt lat="46.413770000" lon="-72.844850000">
<ele>0</ele>
<time>2026-09-04T06:29:20Z</time>
</trkpt>
<trkpt lat="46.414090000" lon="-72.844260000">
<ele>0</ele>
<time>2026-09-04T06:29:21Z</time>
</trkpt>
<trkpt lat="46.414240000" lon="-72.844050000">
<ele>0</ele>
<time>2026-09-04T06:29:22Z</time>
</trkpt>
<trkpt lat="46.414490000" lon="-72.843740000">
<ele>0</ele>
<time>2026-09-04T06:29:23Z</time>
</trkpt>
<trkpt lat="46.415290000" lon="-72.842900000">
<ele>0</ele>
<time>2026-09-04T06:29:24Z</time>
</trkpt>
<trkpt lat="46.415560000" lon="-72.842550000">
<ele>0</ele>
<time>2026-09-04T06:29:25Z</time>
</trkpt>
<trkpt lat="46.415780000" lon="-72.842200000">
<ele>0</ele>
<time>2026-09-04T06:29:26Z</time>
</trkpt>
<trkpt lat="46.415950000" lon="-72.841830000">
<ele>0</ele>
<time>2026-09-04T06:29:27Z</time>
</trkpt>
<trkpt lat="46.416220000" lon="-72.841050000">
<ele>0</ele>
<time>2026-09-04T06:29:28Z</time>
</trkpt>
<trkpt lat="46.416310000" lon="-72.840680000">
<ele>0</ele>
<time>2026-09-04T06:29:29Z</time>
</trkpt>
<trkpt lat="46.416400000" lon="-72.840200000">
<ele>0</ele>
<time>2026-09-04T06:29:30Z</time>
</trkpt>
<trkpt lat="46.416420000" lon="-72.839630000">
<ele>0</ele>
<time>2026-09-04T06:29:31Z</time>
</trkpt>
<trkpt lat="46.416310000" lon="-72.838330000">
<ele>0</ele>
<time>2026-09-04T06:29:32Z</time>
</trkpt>
<trkpt lat="46.416180000" lon="-72.837140000">
<ele>0</ele>
<time>2026-09-04T06:29:33Z</time>
</trkpt>
<trkpt lat="46.416180000" lon="-72.837140000">
<ele>0</ele>
<time>2026-09-04T06:29:34Z</time>
</trkpt>
<trkpt lat="46.416040000" lon="-72.835910000">
<ele>0</ele>
<time>2026-09-04T06:29:35Z</time>
</trkpt>
<trkpt lat="46.416000000" lon="-72.835450000">
<ele>0</ele>
<time>2026-09-04T06:29:36Z</time>
</trkpt>
<trkpt lat="46.416000000" lon="-72.835070000">
<ele>0</ele>
<time>2026-09-04T06:29:37Z</time>
</trkpt>
<trkpt lat="46.416000000" lon="-72.834910000">
<ele>0</ele>
<time>2026-09-04T06:29:38Z</time>
</trkpt>
<trkpt lat="46.416070000" lon="-72.834360000">
<ele>0</ele>
<time>2026-09-04T06:29:39Z</time>
</trkpt>
<trkpt lat="46.416090000" lon="-72.834240000">
<ele>0</ele>
<time>2026-09-04T06:29:40Z</time>
</trkpt>
<trkpt lat="46.416190000" lon="-72.833910000">
<ele>0</ele>
<time>2026-09-04T06:29:41Z</time>
</trkpt>
<trkpt lat="46.416330000" lon="-72.833530000">
<ele>0</ele>
<time>2026-09-04T06:29:42Z</time>
</trkpt>
<trkpt lat="46.416880000" lon="-72.832300000">
<ele>0</ele>
<time>2026-09-04T06:29:43Z</time>
</trkpt>
<trkpt lat="46.417090000" lon="-72.831800000">
<ele>0</ele>
<time>2026-09-04T06:29:44Z</time>
</trkpt>
<trkpt lat="46.417280000" lon="-72.831310000">
<ele>0</ele>
<time>2026-09-04T06:29:45Z</time>
</trkpt>
<trkpt lat="46.417450000" lon="-72.830760000">
<ele>0</ele>
<time>2026-09-04T06:29:46Z</time>
</trkpt>
<trkpt lat="46.418050000" lon="-72.828710000">
<ele>0</ele>
<time>2026-09-04T06:29:47Z</time>
</trkpt>
<trkpt lat="46.418330000" lon="-72.827960000">
<ele>0</ele>
<time>2026-09-04T06:29:48Z</time>
</trkpt>
<trkpt lat="46.418650000" lon="-72.827230000">
<ele>0</ele>
<time>2026-09-04T06:29:49Z</time>
</trkpt>
<trkpt lat="46.419160000" lon="-72.826210000">
<ele>0</ele>
<time>2026-09-04T06:29:50Z</time>
</trkpt>
<trkpt lat="46.419860000" lon="-72.825160000">
<ele>0</ele>
<time>2026-09-04T06:29:51Z</time>
</trkpt>
<trkpt lat="46.420270000" lon="-72.824580000">
<ele>0</ele>
<time>2026-09-04T06:29:52Z</time>
</trkpt>
<trkpt lat="46.420270000" lon="-72.824580000">
<ele>0</ele>
<time>2026-09-04T06:29:53Z</time>
</trkpt>
<trkpt lat="46.421350000" lon="-72.823090000">
<ele>0</ele>
<time>2026-09-04T06:29:54Z</time>
</trkpt>
<trkpt lat="46.422370000" lon="-72.821520000">
<ele>0</ele>
<time>2026-09-04T06:29:55Z</time>
</trkpt>
<trkpt lat="46.422940000" lon="-72.820470000">
<ele>0</ele>
<time>2026-09-04T06:29:56Z</time>
</trkpt>
<trkpt lat="46.423550000" lon="-72.819300000">
<ele>0</ele>
<time>2026-09-04T06:29:57Z</time>
</trkpt>
<trkpt lat="46.423870000" lon="-72.818600000">
<ele>0</ele>
<time>2026-09-04T06:29:58Z</time>
</trkpt>
<trkpt lat="46.424650000" lon="-72.816860000">
<ele>0</ele>
<time>2026-09-04T06:29:59Z</time>
</trkpt>
<trkpt lat="46.426640000" lon="-72.812120000">
<ele>0</ele>
<time>2026-09-04T06:30:00Z</time>
</trkpt>
<trkpt lat="46.427000000" lon="-72.811390000">
<ele>0</ele>
<time>2026-09-04T06:30:01Z</time>
</trkpt>
<trkpt lat="46.427430000" lon="-72.810730000">
<ele>0</ele>
<time>2026-09-04T06:30:02Z</time>
</trkpt>
<trkpt lat="46.427590000" lon="-72.810520000">
<ele>0</ele>
<time>2026-09-04T06:30:03Z</time>
</trkpt>
<trkpt lat="46.427970000" lon="-72.810080000">
<ele>0</ele>
<time>2026-09-04T06:30:04Z</time>
</trkpt>
<trkpt lat="46.428370000" lon="-72.809670000">
<ele>0</ele>
<time>2026-09-04T06:30:05Z</time>
</trkpt>
<trkpt lat="46.429040000" lon="-72.808890000">
<ele>0</ele>
<time>2026-09-04T06:30:06Z</time>
</trkpt>
<trkpt lat="46.429580000" lon="-72.808150000">
<ele>0</ele>
<time>2026-09-04T06:30:07Z</time>
</trkpt>
<trkpt lat="46.429580000" lon="-72.808150000">
<ele>0</ele>
<time>2026-09-04T06:30:08Z</time>
</trkpt>
<trkpt lat="46.429900000" lon="-72.807560000">
<ele>0</ele>
<time>2026-09-04T06:30:09Z</time>
</trkpt>
<trkpt lat="46.430150000" lon="-72.807070000">
<ele>0</ele>
<time>2026-09-04T06:30:10Z</time>
</trkpt>
<trkpt lat="46.431110000" lon="-72.804400000">
<ele>0</ele>
<time>2026-09-04T06:30:11Z</time>
</trkpt>
<trkpt lat="46.432280000" lon="-72.801180000">
<ele>0</ele>
<time>2026-09-04T06:30:12Z</time>
</trkpt>
<trkpt lat="46.432610000" lon="-72.800420000">
<ele>0</ele>
<time>2026-09-04T06:30:13Z</time>
</trkpt>
<trkpt lat="46.433110000" lon="-72.799460000">
<ele>0</ele>
<time>2026-09-04T06:30:14Z</time>
</trkpt>
<trkpt lat="46.433310000" lon="-72.799010000">
<ele>0</ele>
<time>2026-09-04T06:30:15Z</time>
</trkpt>
<trkpt lat="46.433410000" lon="-72.798730000">
<ele>0</ele>
<time>2026-09-04T06:30:16Z</time>
</trkpt>
<trkpt lat="46.433740000" lon="-72.797630000">
<ele>0</ele>
<time>2026-09-04T06:30:17Z</time>
</trkpt>
<trkpt lat="46.433880000" lon="-72.796780000">
<ele>0</ele>
<time>2026-09-04T06:30:18Z</time>
</trkpt>
<trkpt lat="46.434040000" lon="-72.795420000">
<ele>0</ele>
<time>2026-09-04T06:30:19Z</time>
</trkpt>
<trkpt lat="46.434040000" lon="-72.795420000">
<ele>0</ele>
<time>2026-09-04T06:30:20Z</time>
</trkpt>
<trkpt lat="46.434230000" lon="-72.793730000">
<ele>0</ele>
<time>2026-09-04T06:30:21Z</time>
</trkpt>
<trkpt lat="46.434320000" lon="-72.793130000">
<ele>0</ele>
<time>2026-09-04T06:30:22Z</time>
</trkpt>
<trkpt lat="46.434570000" lon="-72.792100000">
<ele>0</ele>
<time>2026-09-04T06:30:23Z</time>
</trkpt>
<trkpt lat="46.435160000" lon="-72.790330000">
<ele>0</ele>
<time>2026-09-04T06:30:24Z</time>
</trkpt>
<trkpt lat="46.435350000" lon="-72.789600000">
<ele>0</ele>
<time>2026-09-04T06:30:25Z</time>
</trkpt>
<trkpt lat="46.435410000" lon="-72.789090000">
<ele>0</ele>
<time>2026-09-04T06:30:26Z</time>
</trkpt>
<trkpt lat="46.435370000" lon="-72.787750000">
<ele>0</ele>
<time>2026-09-04T06:30:27Z</time>
</trkpt>
<trkpt lat="46.435390000" lon="-72.787220000">
<ele>0</ele>
<time>2026-09-04T06:30:28Z</time>
</trkpt>
<trkpt lat="46.435450000" lon="-72.786890000">
<ele>0</ele>
<time>2026-09-04T06:30:29Z</time>
</trkpt>
<trkpt lat="46.435560000" lon="-72.786550000">
<ele>0</ele>
<time>2026-09-04T06:30:30Z</time>
</trkpt>
<trkpt lat="46.435840000" lon="-72.785960000">
<ele>0</ele>
<time>2026-09-04T06:30:31Z</time>
</trkpt>
<trkpt lat="46.437100000" lon="-72.784030000">
<ele>0</ele>
<time>2026-09-04T06:30:32Z</time>
</trkpt>
<trkpt lat="46.438690000" lon="-72.781600000">
<ele>0</ele>
<time>2026-09-04T06:30:33Z</time>
</trkpt>
<trkpt lat="46.439930000" lon="-72.779730000">
<ele>0</ele>
<time>2026-09-04T06:30:34Z</time>
</trkpt>
<trkpt lat="46.441140000" lon="-72.777840000">
<ele>0</ele>
<time>2026-09-04T06:30:35Z</time>
</trkpt>
<trkpt lat="46.441920000" lon="-72.776730000">
<ele>0</ele>
<time>2026-09-04T06:30:36Z</time>
</trkpt>
<trkpt lat="46.441920000" lon="-72.776730000">
<ele>0</ele>
<time>2026-09-04T06:30:37Z</time>
</trkpt>
<trkpt lat="46.442300000" lon="-72.776170000">
<ele>0</ele>
<time>2026-09-04T06:30:38Z</time>
</trkpt>
<trkpt lat="46.441890000" lon="-72.775540000">
<ele>0</ele>
<time>2026-09-04T06:30:39Z</time>
</trkpt>
<trkpt lat="46.441500000" lon="-72.774980000">
<ele>0</ele>
<time>2026-09-04T06:30:40Z</time>
</trkpt>
<trkpt lat="46.441500000" lon="-72.774980000">
<ele>0</ele>
<time>2026-09-04T06:30:41Z</time>
</trkpt>
<trkpt lat="46.440480000" lon="-72.773560000">
<ele>0</ele>
<time>2026-09-04T06:30:42Z</time>
</trkpt>
<trkpt lat="46.439760000" lon="-72.772620000">
<ele>0</ele>
<time>2026-09-04T06:30:43Z</time>
</trkpt>
<trkpt lat="46.439060000" lon="-72.771810000">
<ele>0</ele>
<time>2026-09-04T06:30:44Z</time>
</trkpt>
<trkpt lat="46.438980000" lon="-72.771670000">
<ele>0</ele>
<time>2026-09-04T06:30:45Z</time>
</trkpt>
<trkpt lat="46.438910000" lon="-72.771470000">
<ele>0</ele>
<time>2026-09-04T06:30:46Z</time>
</trkpt>
<trkpt lat="46.438810000" lon="-72.771050000">
<ele>0</ele>
<time>2026-09-04T06:30:47Z</time>
</trkpt>
<trkpt lat="46.438710000" lon="-72.770660000">
<ele>0</ele>
<time>2026-09-04T06:30:48Z</time>
</trkpt>
<trkpt lat="46.438660000" lon="-72.770530000">
<ele>0</ele>
<time>2026-09-04T06:30:49Z</time>
</trkpt>
<trkpt lat="46.438540000" lon="-72.770360000">
<ele>0</ele>
<time>2026-09-04T06:30:50Z</time>
</trkpt>
<trkpt lat="46.437260000" lon="-72.769320000">
<ele>0</ele>
<time>2026-09-04T06:30:51Z</time>
</trkpt>
<trkpt lat="46.436200000" lon="-72.768220000">
<ele>0</ele>
<time>2026-09-04T06:30:52Z</time>
</trkpt>
<trkpt lat="46.435710000" lon="-72.767710000">
<ele>0</ele>
<time>2026-09-04T06:30:53Z</time>
</trkpt>
<trkpt lat="46.435710000" lon="-72.767710000">
<ele>0</ele>
<time>2026-09-04T06:30:54Z</time>
</trkpt>
<trkpt lat="46.434730000" lon="-72.766690000">
<ele>0</ele>
<time>2026-09-04T06:30:55Z</time>
</trkpt>
<trkpt lat="46.434590000" lon="-72.766500000">
<ele>0</ele>
<time>2026-09-04T06:30:56Z</time>
</trkpt>
<trkpt lat="46.434440000" lon="-72.766250000">
<ele>0</ele>
<time>2026-09-04T06:30:57Z</time>
</trkpt>
<trkpt lat="46.433790000" lon="-72.765110000">
<ele>0</ele>
<time>2026-09-04T06:30:58Z</time>
</trkpt>
<trkpt lat="46.433450000" lon="-72.764600000">
<ele>0</ele>
<time>2026-09-04T06:30:59Z</time>
</trkpt>
<trkpt lat="46.431970000" lon="-72.762490000">
<ele>0</ele>
<time>2026-09-04T06:31:00Z</time>
</trkpt>
<trkpt lat="46.431020000" lon="-72.761090000">
<ele>0</ele>
<time>2026-09-04T06:31:01Z</time>
</trkpt>
<trkpt lat="46.430870000" lon="-72.760830000">
<ele>0</ele>
<time>2026-09-04T06:31:02Z</time>
</trkpt>
<trkpt lat="46.430740000" lon="-72.760590000">
<ele>0</ele>
<time>2026-09-04T06:31:03Z</time>
</trkpt>
<trkpt lat="46.430070000" lon="-72.759220000">
<ele>0</ele>
<time>2026-09-04T06:31:04Z</time>
</trkpt>
<trkpt lat="46.428940000" lon="-72.757060000">
<ele>0</ele>
<time>2026-09-04T06:31:05Z</time>
</trkpt>
<trkpt lat="46.428190000" lon="-72.755400000">
<ele>0</ele>
<time>2026-09-04T06:31:06Z</time>
</trkpt>
<trkpt lat="46.427880000" lon="-72.754650000">
<ele>0</ele>
<time>2026-09-04T06:31:07Z</time>
</trkpt>
<trkpt lat="46.427440000" lon="-72.753290000">
<ele>0</ele>
<time>2026-09-04T06:31:08Z</time>
</trkpt>
<trkpt lat="46.427030000" lon="-72.752180000">
<ele>0</ele>
<time>2026-09-04T06:31:09Z</time>
</trkpt>
<trkpt lat="46.426740000" lon="-72.751690000">
<ele>0</ele>
<time>2026-09-04T06:31:10Z</time>
</trkpt>
<trkpt lat="46.426220000" lon="-72.751080000">
<ele>0</ele>
<time>2026-09-04T06:31:11Z</time>
</trkpt>
<trkpt lat="46.425050000" lon="-72.749810000">
<ele>0</ele>
<time>2026-09-04T06:31:12Z</time>
</trkpt>
<trkpt lat="46.424760000" lon="-72.749450000">
<ele>0</ele>
<time>2026-09-04T06:31:13Z</time>
</trkpt>
<trkpt lat="46.424760000" lon="-72.749450000">
<ele>0</ele>
<time>2026-09-04T06:31:14Z</time>
</trkpt>
<trkpt lat="46.424650000" lon="-72.749300000">
<ele>0</ele>
<time>2026-09-04T06:31:15Z</time>
</trkpt>
<trkpt lat="46.424040000" lon="-72.748300000">
<ele>0</ele>
<time>2026-09-04T06:31:16Z</time>
</trkpt>
<trkpt lat="46.422830000" lon="-72.745790000">
<ele>0</ele>
<time>2026-09-04T06:31:17Z</time>
</trkpt>
<trkpt lat="46.422600000" lon="-72.745290000">
<ele>0</ele>
<time>2026-09-04T06:31:18Z</time>
</trkpt>
<trkpt lat="46.422460000" lon="-72.744920000">
<ele>0</ele>
<time>2026-09-04T06:31:19Z</time>
</trkpt>
<trkpt lat="46.422330000" lon="-72.744500000">
<ele>0</ele>
<time>2026-09-04T06:31:20Z</time>
</trkpt>
<trkpt lat="46.421650000" lon="-72.741930000">
<ele>0</ele>
<time>2026-09-04T06:31:21Z</time>
</trkpt>
<trkpt lat="46.421010000" lon="-72.739840000">
<ele>0</ele>
<time>2026-09-04T06:31:22Z</time>
</trkpt>
<trkpt lat="46.421010000" lon="-72.739840000">
<ele>0</ele>
<time>2026-09-04T06:31:23Z</time>
</trkpt>
<trkpt lat="46.420160000" lon="-72.737070000">
<ele>0</ele>
<time>2026-09-04T06:31:24Z</time>
</trkpt>
<trkpt lat="46.420000000" lon="-72.736720000">
<ele>0</ele>
<time>2026-09-04T06:31:25Z</time>
</trkpt>
<trkpt lat="46.419690000" lon="-72.736310000">
<ele>0</ele>
<time>2026-09-04T06:31:26Z</time>
</trkpt>
<trkpt lat="46.417860000" lon="-72.734000000">
<ele>0</ele>
<time>2026-09-04T06:31:27Z</time>
</trkpt>
<trkpt lat="46.417150000" lon="-72.733070000">
<ele>0</ele>
<time>2026-09-04T06:31:28Z</time>
</trkpt>
<trkpt lat="46.415870000" lon="-72.731240000">
<ele>0</ele>
<time>2026-09-04T06:31:29Z</time>
</trkpt>
<trkpt lat="46.414380000" lon="-72.729120000">
<ele>0</ele>
<time>2026-09-04T06:31:30Z</time>
</trkpt>
<trkpt lat="46.414380000" lon="-72.729120000">
<ele>0</ele>
<time>2026-09-04T06:31:31Z</time>
</trkpt>
<trkpt lat="46.412620000" lon="-72.726610000">
<ele>0</ele>
<time>2026-09-04T06:31:32Z</time>
</trkpt>
<trkpt lat="46.410270000" lon="-72.723240000">
<ele>0</ele>
<time>2026-09-04T06:31:33Z</time>
</trkpt>
<trkpt lat="46.406890000" lon="-72.718360000">
<ele>0</ele>
<time>2026-09-04T06:31:34Z</time>
</trkpt>
<trkpt lat="46.406890000" lon="-72.718360000">
<ele>0</ele>
<time>2026-09-04T06:31:35Z</time>
</trkpt>
<trkpt lat="46.401740000" lon="-72.710910000">
<ele>0</ele>
<time>2026-09-04T06:31:36Z</time>
</trkpt>
<trkpt lat="46.394060000" lon="-72.699660000">
<ele>0</ele>
<time>2026-09-04T06:31:37Z</time>
</trkpt>
<trkpt lat="46.392680000" lon="-72.697600000">
<ele>0</ele>
<time>2026-09-04T06:31:38Z</time>
</trkpt>
<trkpt lat="46.392680000" lon="-72.697600000">
<ele>0</ele>
<time>2026-09-04T06:31:39Z</time>
</trkpt>
<trkpt lat="46.391540000" lon="-72.695910000">
<ele>0</ele>
<time>2026-09-04T06:31:40Z</time>
</trkpt>
<trkpt lat="46.390000000" lon="-72.693700000">
<ele>0</ele>
<time>2026-09-04T06:31:41Z</time>
</trkpt>
<trkpt lat="46.386230000" lon="-72.688240000">
<ele>0</ele>
<time>2026-09-04T06:31:42Z</time>
</trkpt>
<trkpt lat="46.384020000" lon="-72.684970000">
<ele>0</ele>
<time>2026-09-04T06:31:43Z</time>
</trkpt>
<trkpt lat="46.381720000" lon="-72.681790000">
<ele>0</ele>
<time>2026-09-04T06:31:44Z</time>
</trkpt>
<trkpt lat="46.379230000" lon="-72.678170000">
<ele>0</ele>
<time>2026-09-04T06:31:45Z</time>
</trkpt>
<trkpt lat="46.378910000" lon="-72.677800000">
<ele>0</ele>
<time>2026-09-04T06:31:46Z</time>
</trkpt>
<trkpt lat="46.378720000" lon="-72.677690000">
<ele>0</ele>
<time>2026-09-04T06:31:47Z</time>
</trkpt>
<trkpt lat="46.378340000" lon="-72.677610000">
<ele>0</ele>
<time>2026-09-04T06:31:48Z</time>
</trkpt>
<trkpt lat="46.377320000" lon="-72.677410000">
<ele>0</ele>
<time>2026-09-04T06:31:49Z</time>
</trkpt>
<trkpt lat="46.377090000" lon="-72.677350000">
<ele>0</ele>
<time>2026-09-04T06:31:50Z</time>
</trkpt>
<trkpt lat="46.376810000" lon="-72.677230000">
<ele>0</ele>
<time>2026-09-04T06:31:51Z</time>
</trkpt>
<trkpt lat="46.376640000" lon="-72.677120000">
<ele>0</ele>
<time>2026-09-04T06:31:52Z</time>
</trkpt>
<trkpt lat="46.376640000" lon="-72.677120000">
<ele>0</ele>
<time>2026-09-04T06:31:53Z</time>
</trkpt>
<trkpt lat="46.376390000" lon="-72.676900000">
<ele>0</ele>
<time>2026-09-04T06:31:54Z</time>
</trkpt>
<trkpt lat="46.376150000" lon="-72.676580000">
<ele>0</ele>
<time>2026-09-04T06:31:55Z</time>
</trkpt>
<trkpt lat="46.376270000" lon="-72.676460000">
<ele>0</ele>
<time>2026-09-04T06:31:56Z</time>
</trkpt>
<trkpt lat="46.376420000" lon="-72.676250000">
<ele>0</ele>
<time>2026-09-04T06:31:57Z</time>
</trkpt>
<trkpt lat="46.376640000" lon="-72.675900000">
<ele>0</ele>
<time>2026-09-04T06:31:58Z</time>
</trkpt>
<trkpt lat="46.376640000" lon="-72.675900000">
<ele>0</ele>
<time>2026-09-04T06:31:59Z</time>
</trkpt>
<trkpt lat="46.377520000" lon="-72.674550000">
<ele>0</ele>
<time>2026-09-04T06:32:00Z</time>
</trkpt>
<trkpt lat="46.377680000" lon="-72.674330000">
<ele>0</ele>
<time>2026-09-04T06:32:01Z</time>
</trkpt>
<trkpt lat="46.378710000" lon="-72.672850000">
<ele>0</ele>
<time>2026-09-04T06:32:02Z</time>
</trkpt>
<trkpt lat="46.378860000" lon="-72.672650000">
<ele>0</ele>
<time>2026-09-04T06:32:03Z</time>
</trkpt>
<trkpt lat="46.378860000" lon="-72.672650000">
<ele>0</ele>
<time>2026-09-04T06:32:04Z</time>
</trkpt>
<trkpt lat="46.379450000" lon="-72.671800000">
<ele>0</ele>
<time>2026-09-04T06:32:05Z</time>
</trkpt>
<trkpt lat="46.379230000" lon="-72.671520000">
<ele>0</ele>
<time>2026-09-04T06:32:06Z</time>
</trkpt>
<trkpt lat="46.378780000" lon="-72.670940000">
<ele>0</ele>
<time>2026-09-04T06:32:07Z</time>
</trkpt>
<trkpt lat="46.378620000" lon="-72.670800000">
<ele>0</ele>
<time>2026-09-04T06:32:08Z</time>
</trkpt>
<trkpt lat="46.378620000" lon="-72.670800000">
<ele>0</ele>
<time>2026-09-04T06:32:09Z</time>
</trkpt>
<trkpt lat="46.377620000" lon="-72.670200000">
<ele>0</ele>
<time>2026-09-04T06:32:10Z</time>
</trkpt>
<trkpt lat="46.377180000" lon="-72.669890000">
<ele>0</ele>
<time>2026-09-04T06:32:11Z</time>
</trkpt>
<trkpt lat="46.375550000" lon="-72.668910000">
<ele>0</ele>
<time>2026-09-04T06:32:12Z</time>
</trkpt>
<trkpt lat="46.375550000" lon="-72.668910000">
<ele>0</ele>
<time>2026-09-04T06:32:13Z</time>
</trkpt>
<trkpt lat="46.375090000" lon="-72.668580000">
<ele>0</ele>
<time>2026-09-04T06:32:14Z</time>
</trkpt>
<trkpt lat="46.374960000" lon="-72.668450000">
<ele>0</ele>
<time>2026-09-04T06:32:15Z</time>
</trkpt>
<trkpt lat="46.375030000" lon="-72.668110000">
<ele>0</ele>
<time>2026-09-04T06:32:16Z</time>
</trkpt>
<trkpt lat="46.375180000" lon="-72.667690000">
<ele>0</ele>
<time>2026-09-04T06:32:17Z</time>
</trkpt>
<trkpt lat="46.375180000" lon="-72.667690000">
<ele>0</ele>
<time>2026-09-04T06:32:18Z</time>
</trkpt>
<trkpt lat="46.375370000" lon="-72.667270000">
<ele>0</ele>
<time>2026-09-04T06:32:19Z</time>
</trkpt>
<trkpt lat="46.375530000" lon="-72.667020000">
<ele>0</ele>
<time>2026-09-04T06:32:20Z</time>
</trkpt>
<trkpt lat="46.377100000" lon="-72.664740000">
<ele>0</ele>
<time>2026-09-04T06:32:21Z</time>
</trkpt>
<trkpt lat="46.377200000" lon="-72.664570000">
<ele>0</ele>
<time>2026-09-04T06:32:22Z</time>
</trkpt>
<trkpt lat="46.377290000" lon="-72.664310000">
<ele>0</ele>
<time>2026-09-04T06:32:23Z</time>
</trkpt>
<trkpt lat="46.377410000" lon="-72.663810000">
<ele>0</ele>
<time>2026-09-04T06:32:24Z</time>
</trkpt>
<trkpt lat="46.377410000" lon="-72.663810000">
<ele>0</ele>
<time>2026-09-04T06:32:25Z</time>
</trkpt>
<trkpt lat="46.377500000" lon="-72.663210000">
<ele>0</ele>
<time>2026-09-04T06:32:26Z</time>
</trkpt>
<trkpt lat="46.377600000" lon="-72.662780000">
<ele>0</ele>
<time>2026-09-04T06:32:27Z</time>
</trkpt>
<trkpt lat="46.377130000" lon="-72.662110000">
<ele>0</ele>
<time>2026-09-04T06:32:28Z</time>
</trkpt>
<trkpt lat="46.377130000" lon="-72.662110000">
<ele>0</ele>
<time>2026-09-04T06:32:29Z</time>
</trkpt>
<trkpt lat="46.374930000" lon="-72.658990000">
<ele>0</ele>
<time>2026-09-04T06:32:30Z</time>
</trkpt>
<trkpt lat="46.374680000" lon="-72.658650000">
<ele>0</ele>
<time>2026-09-04T06:32:31Z</time>
</trkpt>
<trkpt lat="46.374510000" lon="-72.658490000">
<ele>0</ele>
<time>2026-09-04T06:32:32Z</time>
</trkpt>
<trkpt lat="46.374220000" lon="-72.658130000">
<ele>0</ele>
<time>2026-09-04T06:32:33Z</time>
</trkpt>
<trkpt lat="46.373920000" lon="-72.657590000">
<ele>0</ele>
<time>2026-09-04T06:32:34Z</time>
</trkpt>
<trkpt lat="46.373700000" lon="-72.656970000">
<ele>0</ele>
<time>2026-09-04T06:32:35Z</time>
</trkpt>
<trkpt lat="46.373590000" lon="-72.656550000">
<ele>0</ele>
<time>2026-09-04T06:32:36Z</time>
</trkpt>
<trkpt lat="46.373520000" lon="-72.656090000">
<ele>0</ele>
<time>2026-09-04T06:32:37Z</time>
</trkpt>
<trkpt lat="46.373530000" lon="-72.655010000">
<ele>0</ele>
<time>2026-09-04T06:32:38Z</time>
</trkpt>
<trkpt lat="46.373970000" lon="-72.650140000">
<ele>0</ele>
<time>2026-09-04T06:32:39Z</time>
</trkpt>
<trkpt lat="46.374430000" lon="-72.644300000">
<ele>0</ele>
<time>2026-09-04T06:32:40Z</time>
</trkpt>
<trkpt lat="46.374410000" lon="-72.643350000">
<ele>0</ele>
<time>2026-09-04T06:32:41Z</time>
</trkpt>
<trkpt lat="46.374310000" lon="-72.642550000">
<ele>0</ele>
<time>2026-09-04T06:32:42Z</time>
</trkpt>
<trkpt lat="46.374080000" lon="-72.641800000">
<ele>0</ele>
<time>2026-09-04T06:32:43Z</time>
</trkpt>
<trkpt lat="46.374080000" lon="-72.641800000">
<ele>0</ele>
<time>2026-09-04T06:32:44Z</time>
</trkpt>
<trkpt lat="46.374040000" lon="-72.641690000">
<ele>0</ele>
<time>2026-09-04T06:32:45Z</time>
</trkpt>
<trkpt lat="46.373760000" lon="-72.641140000">
<ele>0</ele>
<time>2026-09-04T06:32:46Z</time>
</trkpt>
<trkpt lat="46.373260000" lon="-72.640360000">
<ele>0</ele>
<time>2026-09-04T06:32:47Z</time>
</trkpt>
<trkpt lat="46.372650000" lon="-72.639520000">
<ele>0</ele>
<time>2026-09-04T06:32:48Z</time>
</trkpt>
<trkpt lat="46.371620000" lon="-72.638000000">
<ele>0</ele>
<time>2026-09-04T06:32:49Z</time>
</trkpt>
<trkpt lat="46.369870000" lon="-72.635340000">
<ele>0</ele>
<time>2026-09-04T06:32:50Z</time>
</trkpt>
<trkpt lat="46.368010000" lon="-72.632600000">
<ele>0</ele>
<time>2026-09-04T06:32:51Z</time>
</trkpt>
<trkpt lat="46.366980000" lon="-72.631010000">
<ele>0</ele>
<time>2026-09-04T06:32:52Z</time>
</trkpt>
<trkpt lat="46.366340000" lon="-72.630100000">
<ele>0</ele>
<time>2026-09-04T06:32:53Z</time>
</trkpt>
<trkpt lat="46.364770000" lon="-72.627760000">
<ele>0</ele>
<time>2026-09-04T06:32:54Z</time>
</trkpt>
<trkpt lat="46.362760000" lon="-72.624770000">
<ele>0</ele>
<time>2026-09-04T06:32:55Z</time>
</trkpt>
<trkpt lat="46.362760000" lon="-72.624770000">
<ele>0</ele>
<time>2026-09-04T06:32:56Z</time>
</trkpt>
<trkpt lat="46.361690000" lon="-72.623160000">
<ele>0</ele>
<time>2026-09-04T06:32:57Z</time>
</trkpt>
<trkpt lat="46.361690000" lon="-72.623160000">
<ele>0</ele>
<time>2026-09-04T06:32:58Z</time>
</trkpt>
<trkpt lat="46.357500000" lon="-72.616950000">
<ele>0</ele>
<time>2026-09-04T06:32:59Z</time>
</trkpt>
<trkpt lat="46.356250000" lon="-72.615090000">
<ele>0</ele>
<time>2026-09-04T06:33:00Z</time>
</trkpt>
<trkpt lat="46.356250000" lon="-72.615090000">
<ele>0</ele>
<time>2026-09-04T06:33:01Z</time>
</trkpt>
<trkpt lat="46.355790000" lon="-72.614390000">
<ele>0</ele>
<time>2026-09-04T06:33:02Z</time>
</trkpt>
<trkpt lat="46.354940000" lon="-72.613060000">
<ele>0</ele>
<time>2026-09-04T06:33:03Z</time>
</trkpt>
<trkpt lat="46.354940000" lon="-72.613060000">
<ele>0</ele>
<time>2026-09-04T06:33:04Z</time>
</trkpt>
<trkpt lat="46.354680000" lon="-72.612650000">
<ele>0</ele>
<time>2026-09-04T06:33:05Z</time>
</trkpt>
<trkpt lat="46.353960000" lon="-72.610590000">
<ele>0</ele>
<time>2026-09-04T06:33:06Z</time>
</trkpt>
<trkpt lat="46.353750000" lon="-72.610110000">
<ele>0</ele>
<time>2026-09-04T06:33:07Z</time>
</trkpt>
<trkpt lat="46.353530000" lon="-72.609730000">
<ele>0</ele>
<time>2026-09-04T06:33:08Z</time>
</trkpt>
<trkpt lat="46.353110000" lon="-72.609130000">
<ele>0</ele>
<time>2026-09-04T06:33:09Z</time>
</trkpt>
<trkpt lat="46.353110000" lon="-72.609130000">
<ele>0</ele>
<time>2026-09-04T06:33:10Z</time>
</trkpt>
<trkpt lat="46.352470000" lon="-72.608250000">
<ele>0</ele>
<time>2026-09-04T06:33:11Z</time>
</trkpt>
<trkpt lat="46.352290000" lon="-72.607970000">
<ele>0</ele>
<time>2026-09-04T06:33:12Z</time>
</trkpt>
<trkpt lat="46.352490000" lon="-72.607670000">
<ele>0</ele>
<time>2026-09-04T06:33:13Z</time>
</trkpt>
<trkpt lat="46.352660000" lon="-72.607430000">
<ele>0</ele>
<time>2026-09-04T06:33:14Z</time>
</trkpt>
<trkpt lat="46.352750000" lon="-72.607250000">
<ele>0</ele>
<time>2026-09-04T06:33:15Z</time>
</trkpt>
<trkpt lat="46.352860000" lon="-72.606900000">
<ele>0</ele>
<time>2026-09-04T06:33:16Z</time>
</trkpt>
<trkpt lat="46.352860000" lon="-72.606900000">
<ele>0</ele>
<time>2026-09-04T06:33:17Z</time>
</trkpt>
<trkpt lat="46.353040000" lon="-72.606370000">
<ele>0</ele>
<time>2026-09-04T06:33:18Z</time>
</trkpt>
<trkpt lat="46.353120000" lon="-72.605650000">
<ele>0</ele>
<time>2026-09-04T06:33:19Z</time>
</trkpt>
<trkpt lat="46.353350000" lon="-72.604030000">
<ele>0</ele>
<time>2026-09-04T06:33:20Z</time>
</trkpt>
<trkpt lat="46.353350000" lon="-72.604060000">
<ele>0</ele>
<time>2026-09-04T06:33:21Z</time>
</trkpt>
<trkpt lat="46.353460000" lon="-72.602910000">
<ele>0</ele>
<time>2026-09-04T06:33:22Z</time>
</trkpt>
<trkpt lat="46.353470000" lon="-72.602800000">
<ele>0</ele>
<time>2026-09-04T06:33:23Z</time>
</trkpt>
<trkpt lat="46.353510000" lon="-72.602740000">
<ele>0</ele>
<time>2026-09-04T06:33:24Z</time>
</trkpt>
<trkpt lat="46.353550000" lon="-72.602650000">
<ele>0</ele>
<time>2026-09-04T06:33:25Z</time>
</trkpt>
<trkpt lat="46.353570000" lon="-72.602060000">
<ele>0</ele>
<time>2026-09-04T06:33:26Z</time>
</trkpt>
<trkpt lat="46.353590000" lon="-72.600960000">
<ele>0</ele>
<time>2026-09-04T06:33:27Z</time>
</trkpt>
<trkpt lat="46.353600000" lon="-72.599740000">
<ele>0</ele>
<time>2026-09-04T06:33:28Z</time>
</trkpt>
<trkpt lat="46.353650000" lon="-72.598980000">
<ele>0</ele>
<time>2026-09-04T06:33:29Z</time>
</trkpt>
<trkpt lat="46.353710000" lon="-72.598920000">
<ele>0</ele>
<time>2026-09-04T06:33:30Z</time>
</trkpt>
<trkpt lat="46.353790000" lon="-72.598860000">
<ele>0</ele>
<time>2026-09-04T06:33:31Z</time>
</trkpt>
<trkpt lat="46.353870000" lon="-72.598850000">
<ele>0</ele>
<time>2026-09-04T06:33:32Z</time>
</trkpt>
<trkpt lat="46.354050000" lon="-72.598850000">
<ele>0</ele>
<time>2026-09-04T06:33:33Z</time>
</trkpt>
<trkpt lat="46.354120000" lon="-72.598900000">
<ele>0</ele>
<time>2026-09-04T06:33:34Z</time>
</trkpt>
<trkpt lat="46.354290000" lon="-72.599150000">
<ele>0</ele>
<time>2026-09-04T06:33:35Z</time>
</trkpt>
<trkpt lat="46.354290000" lon="-72.599150000">
<ele>0</ele>
<time>2026-09-04T06:33:36Z</time>
</trkpt>
<trkpt lat="46.354460000" lon="-72.599420000">
<ele>0</ele>
<time>2026-09-04T06:33:37Z</time>
</trkpt>
</trkseg>
</trk>
</gpx>
